sensor_id;sensor_type;location;lat;lon;timestamp;P1;durP1;ratioP1;P2;durP2;ratioP2
39674;SDS011;27790;50.840;4.386;2022-12-18T00:00:45;39.25;;;18.55;;
39674;SDS011;27790;50.840;4.386;2022-12-18T00:03:14;40.40;;;17.70;;
39674;SDS011;27790;50.840;4.386;2022-12-18T00:05:47;36.67;;;17.45;;
39674;SDS011;27790;50.840;4.386;2022-12-18T00:08:17;37.25;;;19.20;;
39674;SDS011;27790;50.840;4.386;2022-12-18T00:10:43;35.25;;;18.48;;
39674;SDS011;27790;50.840;4.386;2022-12-18T00:13:09;31.90;;;16.30;;
39674;SDS011;27790;50.840;4.386;2022-12-18T00:15:36;38.00;;;17.73;;
39674;SDS011;27790;50.840;4.386;2022-12-18T00:18:03;36.03;;;16.25;;
39674;SDS011;27790;50.840;4.386;2022-12-18T00:20:28;36.42;;;16.88;;
39674;SDS011;27790;50.840;4.386;2022-12-18T00:22:54;34.75;;;15.93;;
39674;SDS011;27790;50.840;4.386;2022-12-18T00:25:20;30.80;;;15.55;;
39674;SDS011;27790;50.840;4.386;2022-12-18T00:27:47;29.13;;;15.55;;
39674;SDS011;27790;50.840;4.386;2022-12-18T00:30:13;34.45;;;15.60;;
39674;SDS011;27790;50.840;4.386;2022-12-18T00:32:39;28.33;;;16.38;;
39674;SDS011;27790;50.840;4.386;2022-12-18T00:35:05;34.22;;;15.98;;
39674;SDS011;27790;50.840;4.386;2022-12-18T00:37:33;31.70;;;15.50;;
39674;SDS011;27790;50.840;4.386;2022-12-18T00:39:58;33.67;;;15.57;;
39674;SDS011;27790;50.840;4.386;2022-12-18T00:42:24;33.33;;;16.13;;
39674;SDS011;27790;50.840;4.386;2022-12-18T00:45:01;28.65;;;15.07;;
39674;SDS011;27790;50.840;4.386;2022-12-18T00:47:26;31.35;;;16.33;;
39674;SDS011;27790;50.840;4.386;2022-12-18T00:49:52;28.08;;;14.23;;
39674;SDS011;27790;50.840;4.386;2022-12-18T00:52:17;27.67;;;14.02;;
39674;SDS011;27790;50.840;4.386;2022-12-18T00:54:43;25.98;;;14.63;;
39674;SDS011;27790;50.840;4.386;2022-12-18T00:57:08;28.48;;;13.00;;
39674;SDS011;27790;50.840;4.386;2022-12-18T00:59:34;27.38;;;14.88;;
39674;SDS011;27790;50.840;4.386;2022-12-18T01:02:00;27.48;;;13.77;;
39674;SDS011;27790;50.840;4.386;2022-12-18T01:04:25;31.08;;;14.32;;
39674;SDS011;27790;50.840;4.386;2022-12-18T01:06:51;25.63;;;14.45;;
39674;SDS011;27790;50.840;4.386;2022-12-18T01:09:16;26.27;;;12.60;;
39674;SDS011;27790;50.840;4.386;2022-12-18T01:11:42;27.58;;;12.98;;
39674;SDS011;27790;50.840;4.386;2022-12-18T01:14:08;28.00;;;13.38;;
39674;SDS011;27790;50.840;4.386;2022-12-18T01:16:33;28.27;;;14.00;;
39674;SDS011;27790;50.840;4.386;2022-12-18T01:18:59;25.98;;;12.77;;
39674;SDS011;27790;50.840;4.386;2022-12-18T01:21:25;26.35;;;13.75;;
39674;SDS011;27790;50.840;4.386;2022-12-18T01:23:51;24.55;;;12.77;;
39674;SDS011;27790;50.840;4.386;2022-12-18T01:26:21;25.35;;;13.00;;
39674;SDS011;27790;50.840;4.386;2022-12-18T01:28:48;27.05;;;12.85;;
39674;SDS011;27790;50.840;4.386;2022-12-18T01:31:15;28.42;;;13.00;;
39674;SDS011;27790;50.840;4.386;2022-12-18T01:33:49;25.17;;;11.60;;
39674;SDS011;27790;50.840;4.386;2022-12-18T01:36:20;23.98;;;12.13;;
39674;SDS011;27790;50.840;4.386;2022-12-18T01:38:48;24.33;;;12.20;;
39674;SDS011;27790;50.840;4.386;2022-12-18T01:41:15;24.40;;;12.82;;
39674;SDS011;27790;50.840;4.386;2022-12-18T01:46:25;20.15;;;10.95;;
39674;SDS011;27790;50.840;4.386;2022-12-18T01:48:58;20.52;;;11.07;;
39674;SDS011;27790;50.840;4.386;2022-12-18T01:51:27;22.50;;;10.32;;
39674;SDS011;27790;50.840;4.386;2022-12-18T01:53:54;22.45;;;10.57;;
39674;SDS011;27790;50.840;4.386;2022-12-18T01:56:20;18.00;;;10.35;;
39674;SDS011;27790;50.840;4.386;2022-12-18T02:01:23;20.88;;;10.70;;
39674;SDS011;27790;50.840;4.386;2022-12-18T02:03:50;18.98;;;9.98;;
39674;SDS011;27790;50.840;4.386;2022-12-18T02:06:21;20.85;;;10.60;;
39674;SDS011;27790;50.840;4.386;2022-12-18T02:11:39;20.85;;;11.27;;
39674;SDS011;27790;50.840;4.386;2022-12-18T02:17:04;22.08;;;10.27;;
39674;SDS011;27790;50.840;4.386;2022-12-18T02:25:11;21.17;;;9.95;;
39674;SDS011;27790;50.840;4.386;2022-12-18T02:27:47;19.00;;;10.13;;
39674;SDS011;27790;50.840;4.386;2022-12-18T02:30:15;18.77;;;8.95;;
39674;SDS011;27790;50.840;4.386;2022-12-18T02:32:43;21.58;;;10.38;;
39674;SDS011;27790;50.840;4.386;2022-12-18T02:35:14;20.80;;;9.20;;
39674;SDS011;27790;50.840;4.386;2022-12-18T02:37:44;18.00;;;8.82;;
39674;SDS011;27790;50.840;4.386;2022-12-18T02:40:11;17.58;;;9.07;;
39674;SDS011;27790;50.840;4.386;2022-12-18T02:42:39;21.40;;;10.27;;
39674;SDS011;27790;50.840;4.386;2022-12-18T02:45:05;17.15;;;10.10;;
39674;SDS011;27790;50.840;4.386;2022-12-18T02:47:32;18.83;;;10.00;;
39674;SDS011;27790;50.840;4.386;2022-12-18T02:58:34;16.75;;;8.82;;
39674;SDS011;27790;50.840;4.386;2022-12-18T03:03:57;16.60;;;8.77;;
39674;SDS011;27790;50.840;4.386;2022-12-18T03:06:48;17.88;;;9.30;;
39674;SDS011;27790;50.840;4.386;2022-12-18T03:09:21;20.83;;;9.77;;
39674;SDS011;27790;50.840;4.386;2022-12-18T03:11:54;24.02;;;9.65;;
39674;SDS011;27790;50.840;4.386;2022-12-18T03:14:37;16.55;;;9.27;;
39674;SDS011;27790;50.840;4.386;2022-12-18T03:17:05;18.15;;;9.00;;
39674;SDS011;27790;50.840;4.386;2022-12-18T03:19:35;18.42;;;9.43;;
39674;SDS011;27790;50.840;4.386;2022-12-18T03:22:04;19.83;;;10.10;;
39674;SDS011;27790;50.840;4.386;2022-12-18T03:24:32;17.00;;;9.05;;
39674;SDS011;27790;50.840;4.386;2022-12-18T03:27:02;16.25;;;9.20;;
39674;SDS011;27790;50.840;4.386;2022-12-18T03:29:35;18.38;;;9.38;;
39674;SDS011;27790;50.840;4.386;2022-12-18T03:32:09;15.82;;;9.75;;
39674;SDS011;27790;50.840;4.386;2022-12-18T03:34:40;18.02;;;8.70;;
39674;SDS011;27790;50.840;4.386;2022-12-18T03:37:08;17.92;;;9.38;;
39674;SDS011;27790;50.840;4.386;2022-12-18T03:39:34;16.75;;;8.02;;
39674;SDS011;27790;50.840;4.386;2022-12-18T03:44:54;16.75;;;8.10;;
39674;SDS011;27790;50.840;4.386;2022-12-18T03:47:41;16.92;;;9.30;;
39674;SDS011;27790;50.840;4.386;2022-12-18T03:53:10;15.68;;;7.95;;
39674;SDS011;27790;50.840;4.386;2022-12-18T03:55:46;13.18;;;7.28;;
39674;SDS011;27790;50.840;4.386;2022-12-18T03:58:15;15.15;;;8.10;;
39674;SDS011;27790;50.840;4.386;2022-12-18T04:00:44;16.55;;;7.60;;
39674;SDS011;27790;50.840;4.386;2022-12-18T04:03:11;14.45;;;8.00;;
39674;SDS011;27790;50.840;4.386;2022-12-18T04:05:38;14.07;;;7.65;;
39674;SDS011;27790;50.840;4.386;2022-12-18T04:08:05;16.38;;;8.60;;
39674;SDS011;27790;50.840;4.386;2022-12-18T04:10:31;14.00;;;7.68;;
39674;SDS011;27790;50.840;4.386;2022-12-18T04:12:57;15.23;;;7.65;;
39674;SDS011;27790;50.840;4.386;2022-12-18T04:15:23;13.55;;;6.88;;
39674;SDS011;27790;50.840;4.386;2022-12-18T04:17:49;16.13;;;7.97;;
39674;SDS011;27790;50.840;4.386;2022-12-18T04:20:15;14.82;;;7.47;;
39674;SDS011;27790;50.840;4.386;2022-12-18T04:22:42;16.55;;;7.57;;
39674;SDS011;27790;50.840;4.386;2022-12-18T04:25:08;13.55;;;7.65;;
39674;SDS011;27790;50.840;4.386;2022-12-18T04:27:37;16.33;;;8.52;;
39674;SDS011;27790;50.840;4.386;2022-12-18T04:30:02;14.50;;;7.32;;
39674;SDS011;27790;50.840;4.386;2022-12-18T04:32:28;15.63;;;8.20;;
39674;SDS011;27790;50.840;4.386;2022-12-18T04:34:54;13.68;;;8.07;;
39674;SDS011;27790;50.840;4.386;2022-12-18T04:37:19;16.00;;;7.43;;
39674;SDS011;27790;50.840;4.386;2022-12-18T04:39:45;15.52;;;7.38;;
39674;SDS011;27790;50.840;4.386;2022-12-18T04:42:11;16.38;;;8.70;;
39674;SDS011;27790;50.840;4.386;2022-12-18T04:44:36;17.77;;;8.50;;
39674;SDS011;27790;50.840;4.386;2022-12-18T04:47:02;11.57;;;6.50;;
39674;SDS011;27790;50.840;4.386;2022-12-18T04:49:28;14.35;;;8.13;;
39674;SDS011;27790;50.840;4.386;2022-12-18T04:51:53;13.35;;;8.27;;
39674;SDS011;27790;50.840;4.386;2022-12-18T04:54:19;18.13;;;8.15;;
39674;SDS011;27790;50.840;4.386;2022-12-18T04:56:45;16.73;;;7.45;;
39674;SDS011;27790;50.840;4.386;2022-12-18T04:59:10;15.10;;;7.72;;
39674;SDS011;27790;50.840;4.386;2022-12-18T05:01:36;15.20;;;7.88;;
39674;SDS011;27790;50.840;4.386;2022-12-18T05:04:01;13.38;;;7.05;;
39674;SDS011;27790;50.840;4.386;2022-12-18T05:06:27;14.02;;;7.22;;
39674;SDS011;27790;50.840;4.386;2022-12-18T05:08:53;19.15;;;8.85;;
39674;SDS011;27790;50.840;4.386;2022-12-18T05:11:19;16.85;;;7.95;;
39674;SDS011;27790;50.840;4.386;2022-12-18T05:13:44;16.48;;;7.60;;
39674;SDS011;27790;50.840;4.386;2022-12-18T05:16:10;13.82;;;7.68;;
39674;SDS011;27790;50.840;4.386;2022-12-18T05:18:37;15.70;;;7.20;;
39674;SDS011;27790;50.840;4.386;2022-12-18T05:21:02;14.70;;;6.78;;
39674;SDS011;27790;50.840;4.386;2022-12-18T05:23:29;13.98;;;6.75;;
39674;SDS011;27790;50.840;4.386;2022-12-18T05:25:55;13.07;;;7.47;;
39674;SDS011;27790;50.840;4.386;2022-12-18T05:28:23;14.43;;;7.72;;
39674;SDS011;27790;50.840;4.386;2022-12-18T05:30:51;15.57;;;8.38;;
39674;SDS011;27790;50.840;4.386;2022-12-18T05:33:18;17.50;;;7.15;;
39674;SDS011;27790;50.840;4.386;2022-12-18T05:35:44;14.07;;;7.05;;
39674;SDS011;27790;50.840;4.386;2022-12-18T05:38:22;13.00;;;6.55;;
39674;SDS011;27790;50.840;4.386;2022-12-18T05:40:49;12.32;;;7.22;;
39674;SDS011;27790;50.840;4.386;2022-12-18T05:43:15;15.07;;;7.38;;
39674;SDS011;27790;50.840;4.386;2022-12-18T05:45:41;14.00;;;6.28;;
39674;SDS011;27790;50.840;4.386;2022-12-18T05:48:08;12.25;;;6.40;;
39674;SDS011;27790;50.840;4.386;2022-12-18T05:50:38;16.15;;;6.90;;
39674;SDS011;27790;50.840;4.386;2022-12-18T05:53:05;12.18;;;6.43;;
39674;SDS011;27790;50.840;4.386;2022-12-18T05:55:34;12.45;;;5.53;;
39674;SDS011;27790;50.840;4.386;2022-12-18T05:58:02;14.02;;;6.78;;
39674;SDS011;27790;50.840;4.386;2022-12-18T06:00:29;12.02;;;6.72;;
39674;SDS011;27790;50.840;4.386;2022-12-18T06:02:54;11.65;;;5.13;;
39674;SDS011;27790;50.840;4.386;2022-12-18T06:05:20;10.32;;;5.75;;
39674;SDS011;27790;50.840;4.386;2022-12-18T06:07:46;15.23;;;6.63;;
39674;SDS011;27790;50.840;4.386;2022-12-18T06:10:11;12.65;;;6.38;;
39674;SDS011;27790;50.840;4.386;2022-12-18T06:12:37;12.63;;;6.03;;
39674;SDS011;27790;50.840;4.386;2022-12-18T06:15:03;12.30;;;6.05;;
39674;SDS011;27790;50.840;4.386;2022-12-18T06:17:29;10.98;;;5.32;;
39674;SDS011;27790;50.840;4.386;2022-12-18T06:19:55;9.32;;;5.75;;
39674;SDS011;27790;50.840;4.386;2022-12-18T06:22:21;13.48;;;6.45;;
39674;SDS011;27790;50.840;4.386;2022-12-18T06:24:46;14.02;;;5.90;;
39674;SDS011;27790;50.840;4.386;2022-12-18T06:27:12;13.85;;;6.80;;
39674;SDS011;27790;50.840;4.386;2022-12-18T06:29:38;14.07;;;6.32;;
39674;SDS011;27790;50.840;4.386;2022-12-18T06:32:04;13.68;;;6.82;;
39674;SDS011;27790;50.840;4.386;2022-12-18T06:34:29;10.07;;;6.43;;
39674;SDS011;27790;50.840;4.386;2022-12-18T06:36:57;13.52;;;6.78;;
39674;SDS011;27790;50.840;4.386;2022-12-18T06:39:23;12.40;;;5.10;;
39674;SDS011;27790;50.840;4.386;2022-12-18T06:41:49;11.45;;;6.65;;
39674;SDS011;27790;50.840;4.386;2022-12-18T06:44:15;13.98;;;6.25;;
39674;SDS011;27790;50.840;4.386;2022-12-18T06:46:41;11.77;;;6.43;;
39674;SDS011;27790;50.840;4.386;2022-12-18T06:49:06;13.70;;;5.75;;
39674;SDS011;27790;50.840;4.386;2022-12-18T06:51:34;9.40;;;5.65;;
39674;SDS011;27790;50.840;4.386;2022-12-18T06:53:59;13.88;;;6.50;;
39674;SDS011;27790;50.840;4.386;2022-12-18T06:56:25;11.48;;;7.15;;
39674;SDS011;27790;50.840;4.386;2022-12-18T06:58:51;12.93;;;5.68;;
39674;SDS011;27790;50.840;4.386;2022-12-18T07:01:17;11.68;;;5.32;;
39674;SDS011;27790;50.840;4.386;2022-12-18T07:03:42;10.43;;;5.25;;
39674;SDS011;27790;50.840;4.386;2022-12-18T07:06:15;10.32;;;5.38;;
39674;SDS011;27790;50.840;4.386;2022-12-18T07:08:43;11.27;;;5.53;;
39674;SDS011;27790;50.840;4.386;2022-12-18T07:11:09;10.52;;;5.35;;
39674;SDS011;27790;50.840;4.386;2022-12-18T07:13:35;9.77;;;5.75;;
39674;SDS011;27790;50.840;4.386;2022-12-18T07:18:41;11.10;;;5.03;;
39674;SDS011;27790;50.840;4.386;2022-12-18T07:21:08;12.73;;;5.50;;
39674;SDS011;27790;50.840;4.386;2022-12-18T07:23:35;12.38;;;5.35;;
39674;SDS011;27790;50.840;4.386;2022-12-18T07:26:05;8.95;;;5.22;;
39674;SDS011;27790;50.840;4.386;2022-12-18T07:28:35;8.48;;;4.95;;
39674;SDS011;27790;50.840;4.386;2022-12-18T07:31:06;10.40;;;6.03;;
39674;SDS011;27790;50.840;4.386;2022-12-18T07:33:36;9.73;;;5.45;;
39674;SDS011;27790;50.840;4.386;2022-12-18T07:36:03;7.53;;;4.57;;
39674;SDS011;27790;50.840;4.386;2022-12-18T07:38:30;9.20;;;5.40;;
39674;SDS011;27790;50.840;4.386;2022-12-18T07:41:03;13.80;;;6.07;;
39674;SDS011;27790;50.840;4.386;2022-12-18T07:43:30;8.18;;;4.90;;
39674;SDS011;27790;50.840;4.386;2022-12-18T07:45:55;10.93;;;5.15;;
39674;SDS011;27790;50.840;4.386;2022-12-18T07:48:21;12.63;;;5.93;;
39674;SDS011;27790;50.840;4.386;2022-12-18T07:50:47;8.80;;;4.13;;
39674;SDS011;27790;50.840;4.386;2022-12-18T07:53:12;11.25;;;5.18;;
39674;SDS011;27790;50.840;4.386;2022-12-18T07:55:39;9.95;;;5.85;;
39674;SDS011;27790;50.840;4.386;2022-12-18T07:58:06;8.93;;;5.30;;
39674;SDS011;27790;50.840;4.386;2022-12-18T08:00:32;8.52;;;5.25;;
39674;SDS011;27790;50.840;4.386;2022-12-18T08:02:58;10.43;;;5.47;;
39674;SDS011;27790;50.840;4.386;2022-12-18T08:05:24;10.05;;;6.10;;
39674;SDS011;27790;50.840;4.386;2022-12-18T08:07:49;10.73;;;5.70;;
39674;SDS011;27790;50.840;4.386;2022-12-18T08:10:15;8.05;;;4.95;;
39674;SDS011;27790;50.840;4.386;2022-12-18T08:12:41;9.02;;;5.07;;
39674;SDS011;27790;50.840;4.386;2022-12-18T08:15:06;8.57;;;4.88;;
39674;SDS011;27790;50.840;4.386;2022-12-18T08:17:32;11.55;;;6.15;;
39674;SDS011;27790;50.840;4.386;2022-12-18T08:19:58;11.77;;;6.13;;
39674;SDS011;27790;50.840;4.386;2022-12-18T08:22:24;8.10;;;5.07;;
39674;SDS011;27790;50.840;4.386;2022-12-18T08:24:49;10.02;;;6.30;;
39674;SDS011;27790;50.840;4.386;2022-12-18T08:27:15;12.77;;;6.03;;
39674;SDS011;27790;50.840;4.386;2022-12-18T08:29:41;11.10;;;5.22;;
39674;SDS011;27790;50.840;4.386;2022-12-18T08:32:06;11.25;;;5.57;;
39674;SDS011;27790;50.840;4.386;2022-12-18T08:34:32;12.90;;;6.13;;
39674;SDS011;27790;50.840;4.386;2022-12-18T08:36:57;9.02;;;5.25;;
39674;SDS011;27790;50.840;4.386;2022-12-18T08:39:23;10.27;;;5.45;;
39674;SDS011;27790;50.840;4.386;2022-12-18T08:41:49;12.07;;;5.78;;
39674;SDS011;27790;50.840;4.386;2022-12-18T08:44:25;9.60;;;5.28;;
39674;SDS011;27790;50.840;4.386;2022-12-18T08:47:01;9.52;;;6.03;;
39674;SDS011;27790;50.840;4.386;2022-12-18T08:49:27;9.05;;;5.60;;
39674;SDS011;27790;50.840;4.386;2022-12-18T08:51:54;11.20;;;6.30;;
39674;SDS011;27790;50.840;4.386;2022-12-18T08:54:22;9.55;;;6.00;;
39674;SDS011;27790;50.840;4.386;2022-12-18T08:56:47;10.15;;;6.10;;
39674;SDS011;27790;50.840;4.386;2022-12-18T08:59:14;11.38;;;6.43;;
39674;SDS011;27790;50.840;4.386;2022-12-18T09:01:40;12.20;;;5.88;;
39674;SDS011;27790;50.840;4.386;2022-12-18T09:04:07;12.23;;;6.60;;
39674;SDS011;27790;50.840;4.386;2022-12-18T09:06:34;12.27;;;6.45;;
39674;SDS011;27790;50.840;4.386;2022-12-18T09:08:59;9.80;;;6.03;;
39674;SDS011;27790;50.840;4.386;2022-12-18T09:11:26;13.20;;;7.15;;
39674;SDS011;27790;50.840;4.386;2022-12-18T09:13:53;12.40;;;6.45;;
39674;SDS011;27790;50.840;4.386;2022-12-18T09:16:20;11.05;;;6.35;;
39674;SDS011;27790;50.840;4.386;2022-12-18T09:18:46;10.55;;;5.97;;
39674;SDS011;27790;50.840;4.386;2022-12-18T09:21:16;11.70;;;6.32;;
39674;SDS011;27790;50.840;4.386;2022-12-18T09:23:43;11.30;;;6.68;;
39674;SDS011;27790;50.840;4.386;2022-12-18T09:26:14;11.85;;;6.65;;
39674;SDS011;27790;50.840;4.386;2022-12-18T09:28:39;10.93;;;6.53;;
39674;SDS011;27790;50.840;4.386;2022-12-18T09:31:06;11.15;;;6.38;;
39674;SDS011;27790;50.840;4.386;2022-12-18T09:33:36;10.63;;;6.72;;
39674;SDS011;27790;50.840;4.386;2022-12-18T09:36:03;13.07;;;6.47;;
39674;SDS011;27790;50.840;4.386;2022-12-18T09:38:30;15.73;;;8.57;;
39674;SDS011;27790;50.840;4.386;2022-12-18T09:40:57;13.10;;;7.47;;
39674;SDS011;27790;50.840;4.386;2022-12-18T09:43:37;14.45;;;8.13;;
39674;SDS011;27790;50.840;4.386;2022-12-18T09:46:11;13.13;;;7.75;;
39674;SDS011;27790;50.840;4.386;2022-12-18T09:48:44;13.05;;;6.63;;
39674;SDS011;27790;50.840;4.386;2022-12-18T09:51:49;14.38;;;6.90;;
39674;SDS011;27790;50.840;4.386;2022-12-18T09:54:19;17.45;;;8.63;;
39674;SDS011;27790;50.840;4.386;2022-12-18T09:56:47;16.35;;;8.27;;
39674;SDS011;27790;50.840;4.386;2022-12-18T10:01:58;18.52;;;8.05;;
39674;SDS011;27790;50.840;4.386;2022-12-18T10:04:24;14.77;;;8.20;;
39674;SDS011;27790;50.840;4.386;2022-12-18T10:07:03;13.18;;;7.97;;
39674;SDS011;27790;50.840;4.386;2022-12-18T10:09:43;15.48;;;8.35;;
39674;SDS011;27790;50.840;4.386;2022-12-18T10:14:57;12.38;;;8.70;;
39674;SDS011;27790;50.840;4.386;2022-12-18T10:17:41;15.30;;;8.55;;
39674;SDS011;27790;50.840;4.386;2022-12-18T10:20:10;16.88;;;8.98;;
39674;SDS011;27790;50.840;4.386;2022-12-18T10:25:28;14.90;;;8.35;;
39674;SDS011;27790;50.840;4.386;2022-12-18T10:28:07;18.90;;;10.33;;
39674;SDS011;27790;50.840;4.386;2022-12-18T10:30:38;12.65;;;8.23;;
39674;SDS011;27790;50.840;4.386;2022-12-18T10:33:05;17.00;;;9.65;;
39674;SDS011;27790;50.840;4.386;2022-12-18T10:35:30;16.13;;;9.60;;
39674;SDS011;27790;50.840;4.386;2022-12-18T10:38:07;14.90;;;8.82;;
39674;SDS011;27790;50.840;4.386;2022-12-18T10:48:39;19.45;;;9.63;;
39674;SDS011;27790;50.840;4.386;2022-12-18T10:51:16;15.75;;;8.95;;
39674;SDS011;27790;50.840;4.386;2022-12-18T10:53:50;14.27;;;8.98;;
39674;SDS011;27790;50.840;4.386;2022-12-18T10:56:26;15.95;;;8.95;;
39674;SDS011;27790;50.840;4.386;2022-12-18T11:06:59;19.30;;;10.13;;
39674;SDS011;27790;50.840;4.386;2022-12-18T11:09:31;17.00;;;9.93;;
39674;SDS011;27790;50.840;4.386;2022-12-18T11:16:52;18.00;;;10.35;;
39674;SDS011;27790;50.840;4.386;2022-12-18T11:21:58;16.52;;;10.35;;
39674;SDS011;27790;50.840;4.386;2022-12-18T11:24:27;16.13;;;9.98;;
39674;SDS011;27790;50.840;4.386;2022-12-18T11:27:01;16.60;;;9.77;;
39674;SDS011;27790;50.840;4.386;2022-12-18T11:29:32;14.85;;;9.55;;
39674;SDS011;27790;50.840;4.386;2022-12-18T11:32:12;17.88;;;9.73;;
39674;SDS011;27790;50.840;4.386;2022-12-18T11:35:03;15.68;;;9.18;;
39674;SDS011;27790;50.840;4.386;2022-12-18T11:37:37;16.60;;;8.93;;
39674;SDS011;27790;50.840;4.386;2022-12-18T11:48:08;18.38;;;8.63;;
39674;SDS011;27790;50.840;4.386;2022-12-18T11:53:02;15.82;;;8.82;;
39674;SDS011;27790;50.840;4.386;2022-12-18T11:55:37;14.98;;;8.07;;
39674;SDS011;27790;50.840;4.386;2022-12-18T11:58:12;16.90;;;9.05;;
39674;SDS011;27790;50.840;4.386;2022-12-18T12:00:49;17.85;;;9.25;;
39674;SDS011;27790;50.840;4.386;2022-12-18T12:06:15;15.23;;;9.57;;
39674;SDS011;27790;50.840;4.386;2022-12-18T12:14:52;14.27;;;8.93;;
39674;SDS011;27790;50.840;4.386;2022-12-18T12:25:35;26.88;;;10.15;;
39674;SDS011;27790;50.840;4.386;2022-12-18T12:30:52;19.05;;;10.45;;
39674;SDS011;27790;50.840;4.386;2022-12-18T12:38:46;20.25;;;10.82;;
39674;SDS011;27790;50.840;4.386;2022-12-18T12:41:23;18.70;;;10.23;;
39674;SDS011;27790;50.840;4.386;2022-12-18T12:44:02;20.27;;;10.57;;
39674;SDS011;27790;50.840;4.386;2022-12-18T12:46:31;23.90;;;10.02;;
39674;SDS011;27790;50.840;4.386;2022-12-18T12:49:02;24.45;;;10.77;;
39674;SDS011;27790;50.840;4.386;2022-12-18T12:51:38;22.65;;;10.65;;
39674;SDS011;27790;50.840;4.386;2022-12-18T12:54:10;19.80;;;11.30;;
39674;SDS011;27790;50.840;4.386;2022-12-18T13:02:18;23.52;;;10.75;;
39674;SDS011;27790;50.840;4.386;2022-12-18T13:04:58;20.30;;;11.43;;
39674;SDS011;27790;50.840;4.386;2022-12-18T13:21:01;26.75;;;13.85;;
39674;SDS011;27790;50.840;4.386;2022-12-18T13:25:53;20.30;;;12.27;;
39674;SDS011;27790;50.840;4.386;2022-12-18T13:34:36;22.77;;;12.05;;
39674;SDS011;27790;50.840;4.386;2022-12-18T13:39:52;25.73;;;12.68;;
39674;SDS011;27790;50.840;4.386;2022-12-18T13:44:54;22.23;;;12.05;;
39674;SDS011;27790;50.840;4.386;2022-12-18T13:47:27;22.55;;;12.15;;
39674;SDS011;27790;50.840;4.386;2022-12-18T13:49:57;22.85;;;12.50;;
39674;SDS011;27790;50.840;4.386;2022-12-18T13:52:26;24.83;;;12.77;;
39674;SDS011;27790;50.840;4.386;2022-12-18T13:54:58;28.10;;;14.20;;
39674;SDS011;27790;50.840;4.386;2022-12-18T13:57:36;30.52;;;15.10;;
39674;SDS011;27790;50.840;4.386;2022-12-18T14:02:51;29.52;;;14.85;;
39674;SDS011;27790;50.840;4.386;2022-12-18T14:07:55;32.25;;;14.93;;
39674;SDS011;27790;50.840;4.386;2022-12-18T14:10:25;30.55;;;14.88;;
39674;SDS011;27790;50.840;4.386;2022-12-18T14:12:51;24.70;;;12.93;;
39674;SDS011;27790;50.840;4.386;2022-12-18T14:15:26;26.92;;;13.05;;
39674;SDS011;27790;50.840;4.386;2022-12-18T14:18:00;28.67;;;13.38;;
39674;SDS011;27790;50.840;4.386;2022-12-18T14:20:39;24.63;;;13.63;;
39674;SDS011;27790;50.840;4.386;2022-12-18T14:25:56;48.38;;;15.07;;
39674;SDS011;27790;50.840;4.386;2022-12-18T14:28:22;27.20;;;14.93;;
39674;SDS011;27790;50.840;4.386;2022-12-18T14:30:48;25.88;;;13.98;;
39674;SDS011;27790;50.840;4.386;2022-12-18T14:33:18;30.23;;;15.27;;
39674;SDS011;27790;50.840;4.386;2022-12-18T14:38:29;30.20;;;14.68;;
39674;SDS011;27790;50.840;4.386;2022-12-18T14:43:43;30.27;;;14.82;;
39674;SDS011;27790;50.840;4.386;2022-12-18T14:48:59;30.40;;;14.90;;
39674;SDS011;27790;50.840;4.386;2022-12-18T14:51:26;30.70;;;14.40;;
39674;SDS011;27790;50.840;4.386;2022-12-18T14:53:58;34.67;;;16.45;;
39674;SDS011;27790;50.840;4.386;2022-12-18T14:56:27;29.85;;;14.63;;
39674;SDS011;27790;50.840;4.386;2022-12-18T15:07:07;40.72;;;15.52;;
39674;SDS011;27790;50.840;4.386;2022-12-18T15:09:43;29.85;;;14.25;;
39674;SDS011;27790;50.840;4.386;2022-12-18T15:15:04;27.08;;;14.65;;
39674;SDS011;27790;50.840;4.386;2022-12-18T15:17:30;32.88;;;14.85;;
39674;SDS011;27790;50.840;4.386;2022-12-18T15:20:00;29.05;;;15.23;;
39674;SDS011;27790;50.840;4.386;2022-12-18T15:22:33;32.83;;;15.20;;
39674;SDS011;27790;50.840;4.386;2022-12-18T15:25:00;28.63;;;15.32;;
39674;SDS011;27790;50.840;4.386;2022-12-18T15:30:29;29.92;;;17.48;;
39674;SDS011;27790;50.840;4.386;2022-12-18T15:32:50;38.88;;;16.98;;
39674;SDS011;27790;50.840;4.386;2022-12-18T15:35:18;34.38;;;16.92;;
39674;SDS011;27790;50.840;4.386;2022-12-18T15:37:46;35.08;;;15.98;;
39674;SDS011;27790;50.840;4.386;2022-12-18T15:40:13;32.55;;;16.55;;
39674;SDS011;27790;50.840;4.386;2022-12-18T15:42:41;33.08;;;16.88;;
39674;SDS011;27790;50.840;4.386;2022-12-18T15:45:18;29.38;;;15.30;;
39674;SDS011;27790;50.840;4.386;2022-12-18T15:47:44;32.25;;;15.57;;
39674;SDS011;27790;50.840;4.386;2022-12-18T15:50:10;29.23;;;14.00;;
39674;SDS011;27790;50.840;4.386;2022-12-18T15:52:39;30.40;;;16.08;;
39674;SDS011;27790;50.840;4.386;2022-12-18T15:55:11;31.38;;;15.82;;
39674;SDS011;27790;50.840;4.386;2022-12-18T15:57:50;28.63;;;14.32;;
39674;SDS011;27790;50.840;4.386;2022-12-18T16:00:16;29.58;;;14.27;;
39674;SDS011;27790;50.840;4.386;2022-12-18T16:02:42;57.03;;;16.42;;
39674;SDS011;27790;50.840;4.386;2022-12-18T16:05:11;35.35;;;15.80;;
39674;SDS011;27790;50.840;4.386;2022-12-18T16:07:40;28.67;;;13.63;;
39674;SDS011;27790;50.840;4.386;2022-12-18T16:10:05;35.97;;;14.43;;
39674;SDS011;27790;50.840;4.386;2022-12-18T16:12:31;28.33;;;13.90;;
39674;SDS011;27790;50.840;4.386;2022-12-18T16:14:57;29.10;;;13.50;;
39674;SDS011;27790;50.840;4.386;2022-12-18T16:17:23;29.08;;;14.00;;
39674;SDS011;27790;50.840;4.386;2022-12-18T16:19:48;29.13;;;14.23;;
39674;SDS011;27790;50.840;4.386;2022-12-18T16:22:17;26.58;;;12.48;;
39674;SDS011;27790;50.840;4.386;2022-12-18T16:27:13;26.38;;;13.73;;
39674;SDS011;27790;50.840;4.386;2022-12-18T16:29:39;27.92;;;14.32;;
39674;SDS011;27790;50.840;4.386;2022-12-18T16:32:04;25.00;;;12.65;;
39674;SDS011;27790;50.840;4.386;2022-12-18T16:34:31;20.75;;;11.88;;
39674;SDS011;27790;50.840;4.386;2022-12-18T16:36:59;27.27;;;13.50;;
39674;SDS011;27790;50.840;4.386;2022-12-18T16:39:27;24.80;;;12.32;;
39674;SDS011;27790;50.840;4.386;2022-12-18T16:41:53;28.95;;;14.27;;
39674;SDS011;27790;50.840;4.386;2022-12-18T16:44:19;28.33;;;13.20;;
39674;SDS011;27790;50.840;4.386;2022-12-18T16:46:46;27.17;;;13.40;;
39674;SDS011;27790;50.840;4.386;2022-12-18T16:49:12;25.05;;;13.40;;
39674;SDS011;27790;50.840;4.386;2022-12-18T16:51:39;32.35;;;12.25;;
39674;SDS011;27790;50.840;4.386;2022-12-18T16:54:04;27.17;;;14.40;;
39674;SDS011;27790;50.840;4.386;2022-12-18T16:56:30;26.42;;;13.73;;
39674;SDS011;27790;50.840;4.386;2022-12-18T16:58:58;24.13;;;13.13;;
39674;SDS011;27790;50.840;4.386;2022-12-18T17:01:25;25.75;;;13.05;;
39674;SDS011;27790;50.840;4.386;2022-12-18T17:03:57;31.05;;;13.63;;
39674;SDS011;27790;50.840;4.386;2022-12-18T17:06:25;26.30;;;13.05;;
39674;SDS011;27790;50.840;4.386;2022-12-18T17:08:55;29.08;;;13.40;;
39674;SDS011;27790;50.840;4.386;2022-12-18T17:11:28;25.80;;;12.45;;
39674;SDS011;27790;50.840;4.386;2022-12-18T17:13:55;29.13;;;12.32;;
39674;SDS011;27790;50.840;4.386;2022-12-18T17:16:22;25.17;;;11.82;;
39674;SDS011;27790;50.840;4.386;2022-12-18T17:18:48;21.40;;;11.60;;
39674;SDS011;27790;50.840;4.386;2022-12-18T17:21:14;23.27;;;12.07;;
39674;SDS011;27790;50.840;4.386;2022-12-18T17:23:41;26.38;;;11.93;;
39674;SDS011;27790;50.840;4.386;2022-12-18T17:26:07;24.08;;;11.93;;
39674;SDS011;27790;50.840;4.386;2022-12-18T17:28:34;23.42;;;12.85;;